sensor_id;sensor_type;location;lat;lon;timestamp;P1;durP1;ratioP1;P2;durP2;ratioP2
59273;SDS011;45044;41.572;24.730;2023-04-25T00:01:55;8.40;;;4.40;;
59273;SDS011;45044;41.572;24.730;2023-04-25T00:04:23;8.45;;;3.95;;
59273;SDS011;45044;41.572;24.730;2023-04-25T00:06:50;7.95;;;4.00;;
59273;SDS011;45044;41.572;24.730;2023-04-25T00:09:18;9.20;;;3.95;;
59273;SDS011;45044;41.572;24.730;2023-04-25T00:11:45;11.10;;;5.82;;
59273;SDS011;45044;41.572;24.730;2023-04-25T00:14:12;12.90;;;6.53;;
59273;SDS011;45044;41.572;24.730;2023-04-25T00:16:38;11.68;;;5.55;;
59273;SDS011;45044;41.572;24.730;2023-04-25T00:19:07;9.88;;;4.97;;
59273;SDS011;45044;41.572;24.730;2023-04-25T00:21:35;11.70;;;5.80;;
59273;SDS011;45044;41.572;24.730;2023-04-25T00:24:04;9.68;;;5.00;;
59273;SDS011;45044;41.572;24.730;2023-04-25T00:26:33;9.60;;;4.72;;
59273;SDS011;45044;41.572;24.730;2023-04-25T00:29:01;7.18;;;4.35;;
59273;SDS011;45044;41.572;24.730;2023-04-25T00:31:28;11.02;;;6.45;;
59273;SDS011;45044;41.572;24.730;2023-04-25T00:33:56;24.60;;;13.10;;
59273;SDS011;45044;41.572;24.730;2023-04-25T00:36:22;25.52;;;13.45;;
59273;SDS011;45044;41.572;24.730;2023-04-25T00:38:49;19.05;;;10.18;;
59273;SDS011;45044;41.572;24.730;2023-04-25T00:41:16;19.42;;;8.43;;
59273;SDS011;45044;41.572;24.730;2023-04-25T00:43:43;32.13;;;15.50;;
59273;SDS011;45044;41.572;24.730;2023-04-25T00:46:12;10.40;;;5.25;;
59273;SDS011;45044;41.572;24.730;2023-04-25T00:48:39;12.82;;;4.97;;
59273;SDS011;45044;41.572;24.730;2023-04-25T00:51:06;20.90;;;9.45;;
59273;SDS011;45044;41.572;24.730;2023-04-25T00:53:32;42.60;;;17.77;;
59273;SDS011;45044;41.572;24.730;2023-04-25T00:55:59;21.92;;;10.20;;
59273;SDS011;45044;41.572;24.730;2023-04-25T00:58:26;13.88;;;4.90;;
59273;SDS011;45044;41.572;24.730;2023-04-25T01:00:53;12.02;;;4.50;;
59273;SDS011;45044;41.572;24.730;2023-04-25T01:03:21;9.75;;;5.32;;
59273;SDS011;45044;41.572;24.730;2023-04-25T01:05:49;7.45;;;3.33;;
59273;SDS011;45044;41.572;24.730;2023-04-25T01:08:17;17.27;;;8.07;;
59273;SDS011;45044;41.572;24.730;2023-04-25T01:10:44;6.18;;;2.50;;
59273;SDS011;45044;41.572;24.730;2023-04-25T01:13:10;3.20;;;1.92;;
59273;SDS011;45044;41.572;24.730;2023-04-25T01:15:37;4.10;;;2.28;;
59273;SDS011;45044;41.572;24.730;2023-04-25T01:18:05;5.22;;;2.35;;
59273;SDS011;45044;41.572;24.730;2023-04-25T01:20:33;5.57;;;2.67;;
59273;SDS011;45044;41.572;24.730;2023-04-25T01:23:00;7.85;;;3.97;;
59273;SDS011;45044;41.572;24.730;2023-04-25T01:25:30;7.75;;;3.13;;
59273;SDS011;45044;41.572;24.730;2023-04-25T01:27:58;6.32;;;3.45;;
59273;SDS011;45044;41.572;24.730;2023-04-25T01:30:28;7.63;;;3.53;;
59273;SDS011;45044;41.572;24.730;2023-04-25T01:32:56;5.05;;;3.08;;
59273;SDS011;45044;41.572;24.730;2023-04-25T01:35:23;8.18;;;4.15;;
59273;SDS011;45044;41.572;24.730;2023-04-25T01:37:50;7.07;;;3.60;;
59273;SDS011;45044;41.572;24.730;2023-04-25T01:40:17;9.40;;;4.22;;
59273;SDS011;45044;41.572;24.730;2023-04-25T01:42:45;4.72;;;2.33;;
59273;SDS011;45044;41.572;24.730;2023-04-25T01:45:12;6.68;;;3.40;;
59273;SDS011;45044;41.572;24.730;2023-04-25T01:47:39;6.72;;;3.70;;
59273;SDS011;45044;41.572;24.730;2023-04-25T01:50:07;8.27;;;4.75;;
59273;SDS011;45044;41.572;24.730;2023-04-25T01:52:34;28.08;;;17.45;;
59273;SDS011;45044;41.572;24.730;2023-04-25T01:55:01;10.70;;;5.40;;
59273;SDS011;45044;41.572;24.730;2023-04-25T01:57:29;11.02;;;6.07;;
59273;SDS011;45044;41.572;24.730;2023-04-25T02:00:00;11.20;;;6.28;;
59273;SDS011;45044;41.572;24.730;2023-04-25T02:02:29;10.02;;;5.82;;
59273;SDS011;45044;41.572;24.730;2023-04-25T02:04:56;8.40;;;4.38;;
59273;SDS011;45044;41.572;24.730;2023-04-25T02:07:23;6.55;;;3.50;;
59273;SDS011;45044;41.572;24.730;2023-04-25T02:09:50;6.25;;;3.05;;
59273;SDS011;45044;41.572;24.730;2023-04-25T02:12:17;5.03;;;3.03;;
59273;SDS011;45044;41.572;24.730;2023-04-25T02:14:44;5.50;;;3.30;;
59273;SDS011;45044;41.572;24.730;2023-04-25T02:17:11;8.43;;;5.40;;
59273;SDS011;45044;41.572;24.730;2023-04-25T02:19:39;12.30;;;7.20;;
59273;SDS011;45044;41.572;24.730;2023-04-25T02:22:06;11.38;;;6.68;;
59273;SDS011;45044;41.572;24.730;2023-04-25T02:24:32;10.23;;;6.50;;
59273;SDS011;45044;41.572;24.730;2023-04-25T02:27:01;9.48;;;5.68;;
59273;SDS011;45044;41.572;24.730;2023-04-25T02:29:27;9.65;;;6.10;;
59273;SDS011;45044;41.572;24.730;2023-04-25T02:31:55;9.07;;;5.65;;
59273;SDS011;45044;41.572;24.730;2023-04-25T02:34:22;11.23;;;6.28;;
59273;SDS011;45044;41.572;24.730;2023-04-25T02:36:49;10.75;;;6.38;;
59273;SDS011;45044;41.572;24.730;2023-04-25T02:39:19;10.00;;;6.85;;
59273;SDS011;45044;41.572;24.730;2023-04-25T02:41:46;10.98;;;6.78;;
59273;SDS011;45044;41.572;24.730;2023-04-25T02:44:12;18.58;;;11.13;;
59273;SDS011;45044;41.572;24.730;2023-04-25T02:46:39;16.65;;;9.30;;
59273;SDS011;45044;41.572;24.730;2023-04-25T02:49:06;13.38;;;7.30;;
59273;SDS011;45044;41.572;24.730;2023-04-25T02:51:33;10.18;;;5.47;;
59273;SDS011;45044;41.572;24.730;2023-04-25T02:54:00;8.43;;;4.30;;
59273;SDS011;45044;41.572;24.730;2023-04-25T02:56:26;9.85;;;5.15;;
59273;SDS011;45044;41.572;24.730;2023-04-25T02:58:53;8.93;;;4.07;;
59273;SDS011;45044;41.572;24.730;2023-04-25T03:01:20;8.05;;;4.20;;
59273;SDS011;45044;41.572;24.730;2023-04-25T03:03:47;7.20;;;4.35;;
59273;SDS011;45044;41.572;24.730;2023-04-25T03:06:14;7.32;;;4.32;;
59273;SDS011;45044;41.572;24.730;2023-04-25T03:08:42;9.25;;;5.72;;
59273;SDS011;45044;41.572;24.730;2023-04-25T03:11:09;9.85;;;5.97;;
59273;SDS011;45044;41.572;24.730;2023-04-25T03:13:36;39.08;;;20.17;;
59273;SDS011;45044;41.572;24.730;2023-04-25T03:16:03;60.58;;;36.20;;
59273;SDS011;45044;41.572;24.730;2023-04-25T03:18:31;55.47;;;37.03;;
59273;SDS011;45044;41.572;24.730;2023-04-25T03:20:57;37.58;;;25.02;;
59273;SDS011;45044;41.572;24.730;2023-04-25T03:23:24;46.20;;;29.38;;
59273;SDS011;45044;41.572;24.730;2023-04-25T03:25:52;31.50;;;20.20;;
59273;SDS011;45044;41.572;24.730;2023-04-25T03:28:19;26.88;;;19.27;;
59273;SDS011;45044;41.572;24.730;2023-04-25T03:30:46;31.92;;;22.48;;
59273;SDS011;45044;41.572;24.730;2023-04-25T03:33:13;38.45;;;26.55;;
59273;SDS011;45044;41.572;24.730;2023-04-25T03:35:39;29.70;;;21.02;;
59273;SDS011;45044;41.572;24.730;2023-04-25T03:38:06;27.35;;;19.98;;
59273;SDS011;45044;41.572;24.730;2023-04-25T03:40:33;39.10;;;29.65;;
59273;SDS011;45044;41.572;24.730;2023-04-25T03:43:00;35.45;;;25.25;;
59273;SDS011;45044;41.572;24.730;2023-04-25T03:45:27;45.85;;;31.77;;
59273;SDS011;45044;41.572;24.730;2023-04-25T03:47:53;124.90;;;83.10;;
59273;SDS011;45044;41.572;24.730;2023-04-25T03:50:20;124.40;;;82.18;;
59273;SDS011;45044;41.572;24.730;2023-04-25T03:52:47;111.00;;;67.53;;
59273;SDS011;45044;41.572;24.730;2023-04-25T03:55:14;64.57;;;45.92;;
59273;SDS011;45044;41.572;24.730;2023-04-25T03:57:41;67.03;;;48.97;;
59273;SDS011;45044;41.572;24.730;2023-04-25T04:00:08;196.82;;;125.22;;
59273;SDS011;45044;41.572;24.730;2023-04-25T04:02:36;78.38;;;53.42;;
59273;SDS011;45044;41.572;24.730;2023-04-25T04:05:04;33.85;;;24.08;;
59273;SDS011;45044;41.572;24.730;2023-04-25T04:07:32;29.02;;;19.85;;
59273;SDS011;45044;41.572;24.730;2023-04-25T04:09:59;25.50;;;17.52;;
59273;SDS011;45044;41.572;24.730;2023-04-25T04:12:26;25.15;;;16.98;;
59273;SDS011;45044;41.572;24.730;2023-04-25T04:14:53;23.27;;;16.77;;
59273;SDS011;45044;41.572;24.730;2023-04-25T04:17:19;25.17;;;18.30;;
59273;SDS011;45044;41.572;24.730;2023-04-25T04:19:46;37.83;;;27.63;;
59273;SDS011;45044;41.572;24.730;2023-04-25T04:22:13;44.00;;;34.28;;
59273;SDS011;45044;41.572;24.730;2023-04-25T04:24:40;36.28;;;26.88;;
59273;SDS011;45044;41.572;24.730;2023-04-25T04:27:10;42.33;;;29.70;;
59273;SDS011;45044;41.572;24.730;2023-04-25T04:29:39;44.78;;;29.88;;
59273;SDS011;45044;41.572;24.730;2023-04-25T04:32:05;97.18;;;72.82;;
59273;SDS011;45044;41.572;24.730;2023-04-25T04:34:35;65.30;;;50.80;;
59273;SDS011;45044;41.572;24.730;2023-04-25T04:37:02;35.03;;;26.98;;
59273;SDS011;45044;41.572;24.730;2023-04-25T04:39:29;37.10;;;27.23;;
59273;SDS011;45044;41.572;24.730;2023-04-25T04:41:55;49.05;;;37.75;;
59273;SDS011;45044;41.572;24.730;2023-04-25T04:44:22;55.20;;;44.75;;
59273;SDS011;45044;41.572;24.730;2023-04-25T04:46:49;37.22;;;30.33;;
59273;SDS011;45044;41.572;24.730;2023-04-25T04:49:17;33.20;;;27.48;;
59273;SDS011;45044;41.572;24.730;2023-04-25T04:51:43;28.60;;;21.98;;
59273;SDS011;45044;41.572;24.730;2023-04-25T04:54:11;24.60;;;19.15;;
59273;SDS011;45044;41.572;24.730;2023-04-25T04:56:37;22.27;;;19.13;;
59273;SDS011;45044;41.572;24.730;2023-04-25T04:59:05;22.77;;;20.17;;
59273;SDS011;45044;41.572;24.730;2023-04-25T05:01:32;22.35;;;18.25;;
59273;SDS011;45044;41.572;24.730;2023-04-25T05:03:58;34.63;;;29.02;;
59273;SDS011;45044;41.572;24.730;2023-04-25T05:06:27;36.15;;;29.98;;
59273;SDS011;45044;41.572;24.730;2023-04-25T05:08:55;31.30;;;27.73;;
59273;SDS011;45044;41.572;24.730;2023-04-25T05:11:23;31.38;;;27.70;;
59273;SDS011;45044;41.572;24.730;2023-04-25T05:13:57;26.80;;;23.10;;
59273;SDS011;45044;41.572;24.730;2023-04-25T05:16:24;28.73;;;25.65;;
59273;SDS011;45044;41.572;24.730;2023-04-25T05:18:52;28.25;;;24.50;;
59273;SDS011;45044;41.572;24.730;2023-04-25T05:21:19;28.65;;;25.75;;
59273;SDS011;45044;41.572;24.730;2023-04-25T05:23:46;28.02;;;24.95;;
59273;SDS011;45044;41.572;24.730;2023-04-25T05:26:13;26.13;;;20.83;;
59273;SDS011;45044;41.572;24.730;2023-04-25T05:28:40;21.35;;;19.05;;
59273;SDS011;45044;41.572;24.730;2023-04-25T05:31:11;13.13;;;10.93;;
59273;SDS011;45044;41.572;24.730;2023-04-25T05:33:38;17.08;;;14.75;;
59273;SDS011;45044;41.572;24.730;2023-04-25T05:36:05;14.32;;;11.07;;
59273;SDS011;45044;41.572;24.730;2023-04-25T05:38:32;15.70;;;12.65;;
59273;SDS011;45044;41.572;24.730;2023-04-25T05:41:00;14.85;;;12.13;;
59273;SDS011;45044;41.572;24.730;2023-04-25T05:43:27;14.15;;;11.43;;
59273;SDS011;45044;41.572;24.730;2023-04-25T05:45:54;12.55;;;10.52;;
59273;SDS011;45044;41.572;24.730;2023-04-25T05:48:20;9.23;;;6.95;;
59273;SDS011;45044;41.572;24.730;2023-04-25T05:50:47;5.57;;;3.50;;
59273;SDS011;45044;41.572;24.730;2023-04-25T05:53:14;5.28;;;4.18;;
59273;SDS011;45044;41.572;24.730;2023-04-25T05:55:41;5.28;;;3.65;;
59273;SDS011;45044;41.572;24.730;2023-04-25T05:58:07;6.70;;;4.82;;
59273;SDS011;45044;41.572;24.730;2023-04-25T06:00:34;8.93;;;5.78;;
59273;SDS011;45044;41.572;24.730;2023-04-25T06:03:01;9.02;;;5.00;;
59273;SDS011;45044;41.572;24.730;2023-04-25T06:05:28;8.00;;;5.50;;
59273;SDS011;45044;41.572;24.730;2023-04-25T06:07:55;11.30;;;7.80;;
59273;SDS011;45044;41.572;24.730;2023-04-25T06:10:22;9.18;;;5.95;;
59273;SDS011;45044;41.572;24.730;2023-04-25T06:12:49;7.00;;;3.67;;
59273;SDS011;45044;41.572;24.730;2023-04-25T06:15:16;5.18;;;2.95;;
59273;SDS011;45044;41.572;24.730;2023-04-25T06:17:54;4.80;;;2.92;;
59273;SDS011;45044;41.572;24.730;2023-04-25T06:20:22;3.35;;;2.60;;
59273;SDS011;45044;41.572;24.730;2023-04-25T06:22:50;7.15;;;3.97;;
59273;SDS011;45044;41.572;24.730;2023-04-25T06:25:18;6.53;;;3.67;;
59273;SDS011;45044;41.572;24.730;2023-04-25T06:27:46;5.05;;;3.53;;
59273;SDS011;45044;41.572;24.730;2023-04-25T06:30:13;5.20;;;2.90;;
59273;SDS011;45044;41.572;24.730;2023-04-25T06:32:40;9.60;;;4.47;;
59273;SDS011;45044;41.572;24.730;2023-04-25T06:35:07;6.53;;;2.97;;
59273;SDS011;45044;41.572;24.730;2023-04-25T06:37:34;13.90;;;6.00;;
59273;SDS011;45044;41.572;24.730;2023-04-25T06:40:01;4.13;;;2.33;;
59273;SDS011;45044;41.572;24.730;2023-04-25T06:42:28;4.10;;;2.40;;
59273;SDS011;45044;41.572;24.730;2023-04-25T06:44:55;6.72;;;3.58;;
59273;SDS011;45044;41.572;24.730;2023-04-25T06:47:22;4.70;;;2.83;;
59273;SDS011;45044;41.572;24.730;2023-04-25T06:49:49;13.02;;;6.57;;
59273;SDS011;45044;41.572;24.730;2023-04-25T06:52:16;8.40;;;6.00;;
59273;SDS011;45044;41.572;24.730;2023-04-25T06:54:44;9.05;;;4.97;;
59273;SDS011;45044;41.572;24.730;2023-04-25T06:57:11;4.68;;;3.15;;
59273;SDS011;45044;41.572;24.730;2023-04-25T06:59:39;4.30;;;2.92;;
59273;SDS011;45044;41.572;24.730;2023-04-25T07:02:06;6.38;;;3.53;;
59273;SDS011;45044;41.572;24.730;2023-04-25T07:04:33;5.43;;;3.10;;
59273;SDS011;45044;41.572;24.730;2023-04-25T07:07:00;4.85;;;2.88;;
59273;SDS011;45044;41.572;24.730;2023-04-25T07:09:29;3.25;;;2.17;;
59273;SDS011;45044;41.572;24.730;2023-04-25T07:11:56;4.15;;;2.30;;
59273;SDS011;45044;41.572;24.730;2023-04-25T07:14:23;3.70;;;2.38;;
59273;SDS011;45044;41.572;24.730;2023-04-25T07:16:50;3.55;;;2.47;;
59273;SDS011;45044;41.572;24.730;2023-04-25T07:19:17;3.30;;;2.10;;
59273;SDS011;45044;41.572;24.730;2023-04-25T07:21:44;5.28;;;2.55;;
59273;SDS011;45044;41.572;24.730;2023-04-25T07:24:10;3.38;;;2.38;;
59273;SDS011;45044;41.572;24.730;2023-04-25T07:26:37;3.55;;;2.00;;
59273;SDS011;45044;41.572;24.730;2023-04-25T07:29:04;2.85;;;1.77;;
59273;SDS011;45044;41.572;24.730;2023-04-25T07:31:41;4.38;;;3.13;;
59273;SDS011;45044;41.572;24.730;2023-04-25T07:34:08;4.82;;;2.72;;
59273;SDS011;45044;41.572;24.730;2023-04-25T07:36:35;3.33;;;2.10;;
59273;SDS011;45044;41.572;24.730;2023-04-25T07:39:01;6.05;;;2.67;;
59273;SDS011;45044;41.572;24.730;2023-04-25T07:41:28;6.45;;;3.05;;
59273;SDS011;45044;41.572;24.730;2023-04-25T07:43:55;5.55;;;3.20;;
59273;SDS011;45044;41.572;24.730;2023-04-25T07:46:22;24.33;;;7.30;;
59273;SDS011;45044;41.572;24.730;2023-04-25T07:48:49;5.43;;;3.90;;
59273;SDS011;45044;41.572;24.730;2023-04-25T07:51:16;5.30;;;3.28;;
59273;SDS011;45044;41.572;24.730;2023-04-25T07:53:43;6.18;;;3.95;;
59273;SDS011;45044;41.572;24.730;2023-04-25T07:56:09;5.60;;;3.95;;
59273;SDS011;45044;41.572;24.730;2023-04-25T07:58:36;5.80;;;3.63;;
59273;SDS011;45044;41.572;24.730;2023-04-25T08:01:06;6.60;;;3.90;;
59273;SDS011;45044;41.572;24.730;2023-04-25T08:03:33;6.18;;;4.07;;
59273;SDS011;45044;41.572;24.730;2023-04-25T08:06:00;9.77;;;5.80;;
59273;SDS011;45044;41.572;24.730;2023-04-25T08:08:27;4.68;;;3.40;;
59273;SDS011;45044;41.572;24.730;2023-04-25T08:10:54;8.48;;;4.13;;
59273;SDS011;45044;41.572;24.730;2023-04-25T08:13:21;4.63;;;3.92;;
59273;SDS011;45044;41.572;24.730;2023-04-25T08:15:47;5.78;;;3.95;;
59273;SDS011;45044;41.572;24.730;2023-04-25T08:18:14;5.55;;;4.20;;
59273;SDS011;45044;41.572;24.730;2023-04-25T08:20:43;5.65;;;4.55;;
59273;SDS011;45044;41.572;24.730;2023-04-25T08:23:09;6.20;;;4.75;;
59273;SDS011;45044;41.572;24.730;2023-04-25T08:25:37;5.75;;;4.72;;
59273;SDS011;45044;41.572;24.730;2023-04-25T08:28:05;5.40;;;4.10;;
59273;SDS011;45044;41.572;24.730;2023-04-25T08:30:32;6.07;;;4.05;;
59273;SDS011;45044;41.572;24.730;2023-04-25T08:32:59;6.72;;;4.72;;
59273;SDS011;45044;41.572;24.730;2023-04-25T08:35:26;6.55;;;4.72;;
59273;SDS011;45044;41.572;24.730;2023-04-25T08:37:52;8.07;;;5.13;;
59273;SDS011;45044;41.572;24.730;2023-04-25T08:40:19;7.15;;;4.85;;
59273;SDS011;45044;41.572;24.730;2023-04-25T08:42:55;11.75;;;8.02;;
59273;SDS011;45044;41.572;24.730;2023-04-25T08:45:24;12.15;;;6.93;;
59273;SDS011;45044;41.572;24.730;2023-04-25T08:47:53;6.75;;;4.65;;
59273;SDS011;45044;41.572;24.730;2023-04-25T08:50:23;9.23;;;5.90;;
59273;SDS011;45044;41.572;24.730;2023-04-25T08:52:52;6.32;;;3.80;;
59273;SDS011;45044;41.572;24.730;2023-04-25T08:55:20;8.95;;;5.93;;
59273;SDS011;45044;41.572;24.730;2023-04-25T08:57:48;18.00;;;12.88;;
59273;SDS011;45044;41.572;24.730;2023-04-25T09:00:16;6.95;;;4.03;;
59273;SDS011;45044;41.572;24.730;2023-04-25T09:02:48;9.07;;;6.05;;
59273;SDS011;45044;41.572;24.730;2023-04-25T09:05:16;9.90;;;6.30;;
59273;SDS011;45044;41.572;24.730;2023-04-25T09:07:46;7.82;;;5.75;;
59273;SDS011;45044;41.572;24.730;2023-04-25T09:10:15;6.40;;;4.78;;
59273;SDS011;45044;41.572;24.730;2023-04-25T09:12:42;5.55;;;4.85;;
59273;SDS011;45044;41.572;24.730;2023-04-25T09:15:10;5.00;;;4.10;;
59273;SDS011;45044;41.572;24.730;2023-04-25T09:17:45;7.78;;;5.57;;
59273;SDS011;45044;41.572;24.730;2023-04-25T09:20:12;5.43;;;4.40;;
59273;SDS011;45044;41.572;24.730;2023-04-25T09:22:39;5.53;;;4.55;;
59273;SDS011;45044;41.572;24.730;2023-04-25T09:25:10;5.28;;;4.47;;
59273;SDS011;45044;41.572;24.730;2023-04-25T09:27:50;6.47;;;4.75;;
59273;SDS011;45044;41.572;24.730;2023-04-25T09:30:28;6.55;;;5.10;;
59273;SDS011;45044;41.572;24.730;2023-04-25T09:32:57;5.10;;;3.83;;
59273;SDS011;45044;41.572;24.730;2023-04-25T09:35:30;5.07;;;3.65;;
59273;SDS011;45044;41.572;24.730;2023-04-25T09:38:06;3.78;;;2.80;;
59273;SDS011;45044;41.572;24.730;2023-04-25T09:40:34;4.25;;;2.88;;
59273;SDS011;45044;41.572;24.730;2023-04-25T09:43:24;6.30;;;4.25;;
59273;SDS011;45044;41.572;24.730;2023-04-25T09:45:52;3.83;;;2.90;;
59273;SDS011;45044;41.572;24.730;2023-04-25T09:48:24;5.20;;;3.70;;
59273;SDS011;45044;41.572;24.730;2023-04-25T09:51:08;3.47;;;2.60;;
59273;SDS011;45044;41.572;24.730;2023-04-25T09:53:42;3.97;;;3.42;;
59273;SDS011;45044;41.572;24.730;2023-04-25T09:56:12;3.78;;;3.25;;
59273;SDS011;45044;41.572;24.730;2023-04-25T09:58:40;3.28;;;2.50;;
59273;SDS011;45044;41.572;24.730;2023-04-25T10:01:10;3.72;;;2.75;;
59273;SDS011;45044;41.572;24.730;2023-04-25T10:03:38;3.65;;;2.10;;
59273;SDS011;45044;41.572;24.730;2023-04-25T10:06:14;1.90;;;1.70;;
59273;SDS011;45044;41.572;24.730;2023-04-25T10:08:45;3.47;;;1.80;;
59273;SDS011;45044;41.572;24.730;2023-04-25T10:11:17;2.45;;;1.80;;
59273;SDS011;45044;41.572;24.730;2023-04-25T10:13:44;2.20;;;2.00;;
59273;SDS011;45044;41.572;24.730;2023-04-25T10:16:12;4.53;;;3.28;;
59273;SDS011;45044;41.572;24.730;2023-04-25T10:18:39;2.00;;;1.75;;
59273;SDS011;45044;41.572;24.730;2023-04-25T10:21:06;1.98;;;1.67;;
59273;SDS011;45044;41.572;24.730;2023-04-25T10:23:34;3.05;;;2.60;;
59273;SDS011;45044;41.572;24.730;2023-04-25T10:26:01;3.15;;;2.00;;
59273;SDS011;45044;41.572;24.730;2023-04-25T10:28:28;3.03;;;1.55;;
59273;SDS011;45044;41.572;24.730;2023-04-25T10:30:59;3.17;;;2.50;;
59273;SDS011;45044;41.572;24.730;2023-04-25T10:33:39;2.10;;;1.48;;
59273;SDS011;45044;41.572;24.730;2023-04-25T10:36:09;3.10;;;1.70;;
59273;SDS011;45044;41.572;24.730;2023-04-25T10:38:42;2.92;;;2.03;;
59273;SDS011;45044;41.572;24.730;2023-04-25T10:41:10;3.25;;;1.80;;
59273;SDS011;45044;41.572;24.730;2023-04-25T10:43:42;1.48;;;1.30;;
59273;SDS011;45044;41.572;24.730;2023-04-25T10:46:16;1.55;;;1.27;;
59273;SDS011;45044;41.572;24.730;2023-04-25T10:48:54;3.88;;;2.05;;
59273;SDS011;45044;41.572;24.730;2023-04-25T10:51:23;2.17;;;1.83;;
59273;SDS011;45044;41.572;24.730;2023-04-25T10:54:16;3.33;;;1.60;;
59273;SDS011;45044;41.572;24.730;2023-04-25T10:56:44;3.33;;;2.40;;
59273;SDS011;45044;41.572;24.730;2023-04-25T10:59:11;5.15;;;2.95;;
59273;SDS011;45044;41.572;24.730;2023-04-25T11:01:43;4.60;;;3.25;;
59273;SDS011;45044;41.572;24.730;2023-04-25T11:04:22;7.05;;;4.85;;
59273;SDS011;45044;41.572;24.730;2023-04-25T11:09:23;11.68;;;8.23;;
59273;SDS011;45044;41.572;24.730;2023-04-25T11:11:54;6.50;;;4.68;;
59273;SDS011;45044;41.572;24.730;2023-04-25T11:14:22;6.70;;;4.32;;
59273;SDS011;45044;41.572;24.730;2023-04-25T11:16:55;7.20;;;4.28;;
59273;SDS011;45044;41.572;24.730;2023-04-25T11:19:26;6.78;;;4.68;;
59273;SDS011;45044;41.572;24.730;2023-04-25T11:21:57;6.82;;;4.28;;
59273;SDS011;45044;41.572;24.730;2023-04-25T11:24:32;7.40;;;4.40;;
59273;SDS011;45044;41.572;24.730;2023-04-25T11:27:04;6.60;;;4.88;;
59273;SDS011;45044;41.572;24.730;2023-04-25T11:29:32;8.10;;;5.38;;
59273;SDS011;45044;41.572;24.730;2023-04-25T11:32:00;7.82;;;5.07;;
59273;SDS011;45044;41.572;24.730;2023-04-25T11:34:29;7.63;;;5.38;;
59273;SDS011;45044;41.572;24.730;2023-04-25T11:37:00;8.90;;;4.47;;
59273;SDS011;45044;41.572;24.730;2023-04-25T11:39:28;6.32;;;3.85;;
59273;SDS011;45044;41.572;24.730;2023-04-25T11:41:55;6.18;;;4.43;;
59273;SDS011;45044;41.572;24.730;2023-04-25T11:44:22;5.00;;;3.20;;
59273;SDS011;45044;41.572;24.730;2023-04-25T11:46:50;5.05;;;3.63;;
59273;SDS011;45044;41.572;24.730;2023-04-25T11:49:17;3.78;;;2.60;;
59273;SDS011;45044;41.572;24.730;2023-04-25T11:51:46;6.90;;;3.88;;
59273;SDS011;45044;41.572;24.730;2023-04-25T11:54:14;12.52;;;5.75;;
59273;SDS011;45044;41.572;24.730;2023-04-25T11:56:42;5.28;;;3.33;;
59273;SDS011;45044;41.572;24.730;2023-04-25T11:59:09;6.07;;;3.80;;
59273;SDS011;45044;41.572;24.730;2023-04-25T12:01:38;6.30;;;3.50;;
59273;SDS011;45044;41.572;24.730;2023-04-25T12:06:50;7.65;;;5.22;;
59273;SDS011;45044;41.572;24.730;2023-04-25T12:09:19;10.30;;;7.40;;
59273;SDS011;45044;41.572;24.730;2023-04-25T12:12:00;11.77;;;6.68;;
59273;SDS011;45044;41.572;24.730;2023-04-25T12:14:31;9.27;;;6.60;;
59273;SDS011;45044;41.572;24.730;2023-04-25T12:16:59;6.88;;;4.75;;
59273;SDS011;45044;41.572;24.730;2023-04-25T12:19:34;8.45;;;5.95;;
59273;SDS011;45044;41.572;24.730;2023-04-25T12:22:02;8.25;;;5.00;;
59273;SDS011;45044;41.572;24.730;2023-04-25T12:24:44;7.18;;;4.72;;
59273;SDS011;45044;41.572;24.730;2023-04-25T12:27:13;8.95;;;5.10;;
59273;SDS011;45044;41.572;24.730;2023-04-25T12:29:52;5.00;;;3.70;;
59273;SDS011;45044;41.572;24.730;2023-04-25T12:32:23;2.97;;;2.38;;
59273;SDS011;45044;41.572;24.730;2023-04-25T12:34:50;4.20;;;2.30;;
59273;SDS011;45044;41.572;24.730;2023-04-25T12:37:19;4.47;;;2.92;;
59273;SDS011;45044;41.572;24.730;2023-04-25T12:39:47;4.82;;;2.85;;
59273;SDS011;45044;41.572;24.730;2023-04-25T12:42:13;3.92;;;2.20;;
59273;SDS011;45044;41.572;24.730;2023-04-25T12:44:40;3.95;;;3.08;;
59273;SDS011;45044;41.572;24.730;2023-04-25T12:47:09;3.67;;;3.05;;
59273;SDS011;45044;41.572;24.730;2023-04-25T12:49:36;6.25;;;2.97;;
59273;SDS011;45044;41.572;24.730;2023-04-25T12:52:03;8.48;;;4.57;;
59273;SDS011;45044;41.572;24.730;2023-04-25T12:54:30;5.20;;;3.63;;
59273;SDS011;45044;41.572;24.730;2023-04-25T12:56:57;4.95;;;3.00;;
59273;SDS011;45044;41.572;24.730;2023-04-25T12:59:24;4.40;;;2.85;;
59273;SDS011;45044;41.572;24.730;2023-04-25T13:01:51;5.03;;;3.15;;
59273;SDS011;45044;41.572;24.730;2023-04-25T13:04:18;4.75;;;3.13;;
59273;SDS011;45044;41.572;24.730;2023-04-25T13:06:47;4.80;;;3.50;;
59273;SDS011;45044;41.572;24.730;2023-04-25T13:09:14;7.68;;;4.10;;
59273;SDS011;45044;41.572;24.730;2023-04-25T13:11:42;3.80;;;2.72;;
59273;SDS011;45044;41.572;24.730;2023-04-25T13:14:08;3.70;;;2.47;;
59273;SDS011;45044;41.572;24.730;2023-04-25T13:16:35;4.68;;;3.20;;
59273;SDS011;45044;41.572;24.730;2023-04-25T13:19:02;7.60;;;5.30;;
59273;SDS011;45044;41.572;24.730;2023-04-25T13:21:32;4.18;;;2.67;;
59273;SDS011;45044;41.572;24.730;2023-04-25T13:23:59;6.35;;;3.05;;
59273;SDS011;45044;41.572;24.730;2023-04-25T13:26:26;5.82;;;3.53;;
59273;SDS011;45044;41.572;24.730;2023-04-25T13:28:52;5.97;;;3.17;;
59273;SDS011;45044;41.572;24.730;2023-04-25T13:31:19;5.43;;;3.92;;
59273;SDS011;45044;41.572;24.730;2023-04-25T13:33:46;4.47;;;2.63;;
59273;SDS011;45044;41.572;24.730;2023-04-25T13:36:13;3.70;;;3.08;;
59273;SDS011;45044;41.572;24.730;2023-04-25T13:38:40;5.22;;;2.85;;
59273;SDS011;45044;41.572;24.730;2023-04-25T13:41:10;6.32;;;3.40;;
59273;SDS011;45044;41.572;24.730;2023-04-25T13:43:42;7.05;;;3.35;;
59273;SDS011;45044;41.572;24.730;2023-04-25T13:46:08;6.15;;;4.35;;
59273;SDS011;45044;41.572;24.730;2023-04-25T13:48:56;5.35;;;3.30;;
59273;SDS011;45044;41.572;24.730;2023-04-25T13:51:31;4.78;;;3.65;;
59273;SDS011;45044;41.572;24.730;2023-04-25T13:53:58;6.95;;;4.50;;
59273;SDS011;45044;41.572;24.730;2023-04-25T13:56:25;6.97;;;4.45;;
59273;SDS011;45044;41.572;24.730;2023-04-25T13:59:01;12.30;;;7.15;;
59273;SDS011;45044;41.572;24.730;2023-04-25T14:01:27;14.80;;;7.75;;
59273;SDS011;45044;41.572;24.730;2023-04-25T14:03:57;17.50;;;10.30;;
59273;SDS011;45044;41.572;24.730;2023-04-25T14:06:23;9.85;;;5.45;;
59273;SDS011;45044;41.572;24.730;2023-04-25T14:08:51;11.40;;;7.03;;
59273;SDS011;45044;41.572;24.730;2023-04-25T14:11:18;9.40;;;6.43;;
59273;SDS011;45044;41.572;24.730;2023-04-25T14:13:45;6.10;;;4.10;;
59273;SDS011;45044;41.572;24.730;2023-04-25T14:16:12;51.85;;;31.67;;
59273;SDS011;45044;41.572;24.730;2023-04-25T14:18:39;8.02;;;4.72;;
59273;SDS011;45044;41.572;24.730;2023-04-25T14:21:06;2.60;;;1.85;;
59273;SDS011;45044;41.572;24.730;2023-04-25T14:23:32;4.13;;;2.22;;
59273;SDS011;45044;41.572;24.730;2023-04-25T14:25:59;4.07;;;2.30;;
59273;SDS011;45044;41.572;24.730;2023-04-25T14:28:26;4.22;;;2.15;;
59273;SDS011;45044;41.572;24.730;2023-04-25T14:30:53;5.90;;;3.28;;
59273;SDS011;45044;41.572;24.730;2023-04-25T14:33:19;3.72;;;2.10;;
59273;SDS011;45044;41.572;24.730;2023-04-25T14:35:46;6.97;;;4.60;;
59273;SDS011;45044;41.572;24.730;2023-04-25T14:38:13;5.68;;;4.07;;
59273;SDS011;45044;41.572;24.730;2023-04-25T14:40:40;3.75;;;2.50;;